Time;durP1;ratioP1;P1;durP2;ratioP2;P2;SDS_P1;SDS_P2;PMS_P1;PMS_P2;Temp;Humidity;BMP_temperature;BMP_pressure;BME280_temperature;BME280_humidity;BME280_pressure;Samples;Min_cycle;Max_cycle;Signal;HPM_P1;HPM_P2
2022/12/14 00:00:17;;;;;;;29.00;14.00;;;;;;;-10.38;68.62;99810.66;30618612;28;97458;-67
2022/12/14 00:15:18;;;;;;;27.93;11.97;;;;;;;-10.58;68.46;99782.94;30530875;28;97262;-68
2022/12/14 00:30:19;;;;;;;22.97;14.73;;;;;;;-10.73;69.14;99788.53;30574408;28;96765;-69
2022/12/14 00:45:20;;;;;;;18.53;14.60;;;;;;;-10.73;69.82;99776.53;30614877;28;96676;-68
2022/12/14 01:00:20;;;;;;;20.27;15.00;;;;;;;-10.94;69.28;99767.69;30613221;28;97244;-69
2022/12/14 01:15:21;;;;;;;14.63;13.17;;;;;;;-10.98;70.33;99762.69;30555955;28;96840;-69
2022/12/14 01:30:21;;;;;;;23.27;15.07;;;;;;;-11.11;69.65;99764.75;30560925;28;96638;-69
2022/12/14 01:45:22;;;;;;;13.27;11.07;;;;;;;-11.32;70.13;99740.50;30621423;28;97112;-68
2022/12/14 02:00:23;;;;;;;16.10;9.60;;;;;;;-11.09;71.14;99739.84;30630096;28;97036;-68
2022/12/14 02:15:24;;;;;;;20.97;15.23;;;;;;;-11.17;70.87;99718.66;30621639;28;96742;-67
2022/12/14 02:30:26;;;;;;;17.47;15.13;;;;;;;-11.24;70.36;99713.69;30530378;28;97319;-69
2022/12/14 02:45:38;;;;;;;19.03;12.83;;;;;;;-11.22;71.63;99721.34;30517569;28;97144;-68
2022/12/14 03:00:39;;;;;;;25.20;13.50;;;;;;;-11.20;71.03;99693.88;30503817;28;97203;-69
2022/12/14 03:15:44;;;;;;;10.33;9.37;;;;;;;-11.07;71.21;99689.19;30502327;28;98021;-68
2022/12/14 03:30:54;;;;;;;11.37;10.03;;;;;;;-10.99;72.02;99674.38;30506063;28;96628;-68
2022/12/14 03:46:10;;;;;;;28.20;16.30;;;;;;;-10.93;71.84;99674.19;30531940;28;96713;-67
2022/12/14 04:01:27;;;;;;;23.47;16.23;;;;;;;-10.86;71.47;99663.72;30617789;28;97132;-68
2022/12/14 04:32:18;;;;;;;28.43;13.50;;;;;;;-10.57;71.47;99616.44;30593078;28;96699;-68
2022/12/14 04:47:25;;;;;;;37.00;17.23;;;;;;;-10.59;71.72;99624.22;30547618;28;96799;-68
2022/12/14 05:02:37;;;;;;;27.00;14.60;;;;;;;-10.58;71.32;99617.31;30563439;28;96700;-68
2022/12/14 05:17:39;;;;;;;16.87;15.10;;;;;;;-10.43;72.23;99597.94;30525743;28;96822;-68
2022/12/14 05:32:40;;;;;;;15.73;12.70;;;;;;;-10.41;72.16;99602.16;30535075;28;96713;-68
2022/12/14 05:47:40;;;;;;;25.40;17.40;;;;;;;-10.27;72.31;99583.63;30606448;28;96709;-68
2022/12/14 06:02:40;;;;;;;17.67;15.17;;;;;;;-10.24;71.52;99583.50;30575849;28;97510;-70
2022/12/14 06:17:45;;;;;;;31.30;16.83;;;;;;;-10.27;72.02;99568.16;30543177;28;96781;-70
2022/12/14 06:32:46;;;;;;;23.03;16.57;;;;;;;-10.37;72.16;99566.84;30599475;28;96693;-68
2022/12/14 06:47:46;;;;;;;16.17;13.53;;;;;;;-10.45;71.45;99541.34;30623651;28;97404;-70
2022/12/14 07:02:47;;;;;;;17.10;15.37;;;;;;;-10.40;72.44;99547.19;30621619;28;97409;-69
2022/12/14 07:17:47;;;;;;;21.20;15.67;;;;;;;-10.24;72.44;99542.28;30621298;28;96608;-70
2022/12/14 07:32:48;;;;;;;27.43;16.20;;;;;;;-9.88;72.23;99535.88;30620022;28;96695;-70
2022/12/14 07:47:48;;;;;;;19.00;11.20;;;;;;;-9.23;71.99;99508.41;30617223;28;96653;-71
2022/12/14 08:02:48;;;;;;;24.80;15.37;;;;;;;-8.60;71.26;99512.69;30615728;28;96695;-71
2022/12/14 08:17:49;;;;;;;30.07;18.77;;;;;;;-8.23;70.68;99497.31;30615633;28;96773;-69
2022/12/14 08:32:49;;;;;;;26.00;17.80;;;;;;;-4.86;69.60;99506.13;30611685;28;97760;-71
2022/12/14 08:47:50;;;;;;;34.83;19.15;;;;;;;1.58;63.87;99483.31;30609654;28;96679;-69
2022/12/14 09:02:50;;;;;;;46.22;28.15;;;;;;;5.74;52.67;99469.34;30605478;28;96790;-70
2022/12/14 09:17:50;;;;;;;58.67;29.27;;;;;;;7.24;47.16;99462.47;30606929;28;97304;-71
2022/12/14 09:32:51;;;;;;;59.17;30.42;;;;;;;4.62;48.28;99431.19;30608602;28;97691;-70
2022/12/14 09:48:00;;;;;;;50.58;27.55;;;;;;;5.02;46.44;99404.34;30607409;28;97346;-71
2022/12/14 10:03:26;;;;;;;44.90;26.90;;;;;;;4.66;43.39;99385.91;30613006;28;97366;-70
2022/12/14 10:18:59;;;;;;;51.67;27.38;;;;;;;9.90;38.21;99357.88;30623299;28;96738;-70
2022/12/14 10:34:19;;;;;;;58.75;32.40;;;;;;;12.73;32.31;99331.97;30597362;28;96670;-77
2022/12/14 10:49:37;;;;;;;76.63;38.07;;;;;;;13.06;29.76;99302.53;30617379;28;97021;-70
2022/12/14 11:04:48;;;;;;;58.67;34.87;;;;;;;13.54;26.12;99275.50;30604063;28;97912;-67
2022/12/14 11:20:05;;;;;;;63.63;34.17;;;;;;;14.13;24.91;99240.56;30527318;28;96766;-69
2022/12/14 11:35:14;;;;;;;57.53;31.77;;;;;;;10.61;27.56;99217.91;30613844;28;97213;-72
2022/12/14 11:50:24;;;;;;;59.50;32.33;;;;;;;12.74;25.82;99189.28;30505585;28;96893;-68
2022/12/14 12:05:26;;;;;;;61.60;31.23;;;;;;;9.52;29.33;99176.38;30484981;28;96776;-69
2022/12/14 12:20:34;;;;;;;52.93;28.33;;;;;;;5.59;34.03;99149.38;30482581;28;97018;-76
2022/12/14 12:35:55;;;;;;;55.20;26.17;;;;;;;4.48;36.84;99095.78;30552120;28;96819;-70
2022/12/14 12:51:04;;;;;;;48.88;25.25;;;;;;;5.91;35.57;99073.75;30611277;28;96903;-70
2022/12/14 13:06:20;;;;;;;39.42;22.05;;;;;;;2.53;40.25;99072.78;30584101;28;96722;-69
2022/12/14 13:21:31;;;;;;;33.85;17.67;;;;;;;0.49;43.47;99045.78;30576170;28;99115;-69
2022/12/14 13:36:44;;;;;;;26.95;13.50;;;;;;;-0.95;45.88;99033.44;30610982;28;97270;-71
2022/12/14 13:51:48;;;;;;;22.92;13.85;;;;;;;-1.88;48.60;99033.72;30614253;28;98626;-67
2022/12/14 14:06:51;;;;;;;31.95;17.65;;;;;;;-2.53;50.55;99022.16;30589334;28;97229;-67
2022/12/14 14:22:09;;;;;;;38.70;17.17;;;;;;;-2.82;51.69;99000.88;30577201;28;98572;-69
2022/12/14 14:37:19;;;;;;;43.80;19.23;;;;;;;-3.12;52.53;98982.19;30594017;28;98232;-68
2022/12/14 14:52:38;;;;;;;33.40;20.48;;;;;;;-3.30;53.19;98980.94;30593612;28;97175;-69
2022/12/14 15:07:41;;;;;;;39.35;18.50;;;;;;;-3.35;54.37;98991.66;30623426;28;96732;-69
2022/12/14 15:22:42;;;;;;;35.45;22.52;;;;;;;-3.43;54.42;98984.44;30581925;28;97414;-67
2022/12/14 15:37:45;;;;;;;41.10;20.33;;;;;;;-3.46;55.74;98942.16;30586622;28;97238;-74
2022/12/14 15:52:47;;;;;;;45.15;18.73;;;;;;;-3.58;56.21;98897.03;30595688;28;97361;-74
2022/12/14 16:07:53;;;;;;;35.38;18.92;;;;;;;-3.58;56.60;98884.00;30604141;28;97708;-72
2022/12/14 16:23:11;;;;;;;32.95;19.38;;;;;;;-3.50;56.92;98892.09;30528386;28;97257;-67
2022/12/14 16:38:16;;;;;;;33.10;19.00;;;;;;;-3.42;56.95;98891.50;30484343;28;96723;-69
2022/12/14 16:53:25;;;;;;;25.63;15.82;;;;;;;-3.37;57.26;98873.78;30482074;28;96722;-68
2022/12/14 17:08:25;;;;;;;41.38;18.00;;;;;;;-3.32;57.92;98870.81;30478652;28;97320;-68
2022/12/14 17:23:26;;;;;;;34.28;19.73;;;;;;;-3.22;58.16;98887.44;30480385;28;96795;-69
2022/12/14 17:38:27;;;;;;;32.15;19.02;;;;;;;-3.13;58.48;98865.91;30478032;28;97115;-68
2022/12/14 17:53:29;;;;;;;37.28;18.30;;;;;;;-3.14;59.04;98873.84;30475258;28;97306;-69
2022/12/14 18:08:29;;;;;;;39.28;21.85;;;;;;;-3.27;59.61;98860.88;30474144;28;96891;-68
2022/12/14 18:23:30;;;;;;;34.40;20.25;;;;;;;-3.43;60.64;98843.81;30481384;28;97510;-68
2022/12/14 18:38:31;;;;;;;34.60;21.58;;;;;;;-3.51;62.37;98851.38;30523657;28;96746;-70
2022/12/14 18:53:31;;;;;;;51.13;27.88;;;;;;;-3.52;62.49;98849.69;30548683;28;98624;-71
2022/12/14 19:08:31;;;;;;;41.08;24.40;;;;;;;-3.60;63.42;98839.84;30548901;28;97946;-69
2022/12/14 19:23:32;;;;;;;47.72;25.75;;;;;;;-3.59;64.78;98822.47;30550235;28;96790;-70
2022/12/14 19:38:36;;;;;;;45.92;23.90;;;;;;;-3.56;65.01;98811.81;30550709;28;97219;-71
2022/12/14 19:53:37;;;;;;;44.13;25.80;;;;;;;-3.57;65.50;98820.56;30566013;28;96628;-70
2022/12/14 20:08:38;;;;;;;54.03;27.58;;;;;;;-3.57;65.90;98823.16;30618436;28;96576;-74
2022/12/14 20:23:38;;;;;;;49.47;28.13;;;;;;;-3.71;66.43;98839.00;30616816;28;96637;-68
2022/12/14 20:38:39;;;;;;;53.03;28.20;;;;;;;-3.75;67.20;98843.56;30523489;28;97640;-69
2022/12/14 20:53:39;;;;;;;49.72;27.67;;;;;;;-3.67;67.80;98830.84;30494569;28;96747;-70
2022/12/14 21:23:59;;;;;;;56.22;28.02;;;;;;;-3.56;68.70;98837.84;30490405;28;96994;-73
2022/12/14 21:39:03;;;;;;;52.25;28.35;;;;;;;-3.51;68.82;98840.94;30526696;28;97743;-70
2022/12/14 21:54:04;;;;;;;51.47;29.47;;;;;;;-3.50;68.58;98847.81;30578095;28;96775;-72
2022/12/14 22:09:05;;;;;;;46.55;28.67;;;;;;;-3.47;69.66;98846.75;30626940;28;96701;-71
2022/12/14 22:24:06;;;;;;;50.92;26.35;;;;;;;-3.58;69.11;98850.16;30627180;28;97463;-70
2022/12/14 22:39:08;;;;;;;54.65;29.60;;;;;;;-3.67;69.53;98856.03;30625187;28;96615;-71
2022/12/14 22:54:10;;;;;;;51.13;29.80;;;;;;;-3.83;69.37;98866.72;30624995;28;97267;-68
